createdAt,value
2022-11-13T00:00:41.450Z,7.6
2022-11-13T00:01:41.434Z,7.6
2022-11-13T00:02:41.573Z,7.7
2022-11-13T00:03:41.468Z,7.7
2022-11-13T00:04:41.417Z,7.6
2022-11-13T00:05:41.421Z,7.6
2022-11-13T00:06:41.488Z,7.6
2022-11-13T00:07:41.421Z,7.7
2022-11-13T00:08:41.437Z,7.6
2022-11-13T00:09:41.443Z,7.6
2022-11-13T00:10:41.473Z,7.7
2022-11-13T00:11:41.430Z,7.6
2022-11-13T00:12:41.436Z,7.6
2022-11-13T00:13:41.431Z,7.6
2022-11-13T00:14:41.480Z,7.5
2022-11-13T00:15:41.453Z,7.5
2022-11-13T00:16:41.431Z,7.6
2022-11-13T00:17:41.447Z,7.5
2022-11-13T00:18:41.475Z,7.6
2022-11-13T00:19:41.429Z,7.5
2022-11-13T00:20:41.424Z,7.5
2022-11-13T00:21:41.429Z,7.6
2022-11-13T00:22:41.462Z,7.6
2022-11-13T00:23:41.455Z,7.6
2022-11-13T00:24:41.422Z,7.7
2022-11-13T00:25:41.583Z,7.6
2022-11-13T00:26:41.472Z,7.7
2022-11-13T00:27:41.437Z,7.6
2022-11-13T00:28:41.449Z,7.6
2022-11-13T00:29:41.432Z,7.6
2022-11-13T00:30:41.434Z,7.5
2022-11-13T00:31:41.433Z,7.5
2022-11-13T00:32:41.489Z,7.6
2022-11-13T00:34:47.636Z,7.5
2022-11-13T00:35:41.461Z,7.4
2022-11-13T00:36:41.434Z,7.5
2022-11-13T00:37:41.436Z,7.3
2022-11-13T00:38:41.437Z,7.3
2022-11-13T00:39:41.426Z,7.3
2022-11-13T00:40:41.496Z,7.4
2022-11-13T00:41:41.445Z,7.4
2022-11-13T00:42:41.445Z,7.4
2022-11-13T00:43:41.424Z,7.3
2022-11-13T00:44:41.426Z,7.3
2022-11-13T00:45:41.422Z,7.2
2022-11-13T00:46:41.453Z,7.2
2022-11-13T00:47:41.447Z,7.1
2022-11-13T00:48:41.487Z,7.1
2022-11-13T00:49:41.440Z,7.1
2022-11-13T00:50:41.459Z,7.2
2022-11-13T00:51:41.440Z,7.2
2022-11-13T00:52:41.466Z,7.2
2022-11-13T00:53:41.438Z,7.2
2022-11-13T00:54:41.429Z,7.2
2022-11-13T00:55:41.474Z,7.2
2022-11-13T00:56:41.608Z,7.2
2022-11-13T00:57:41.454Z,7.2
2022-11-13T00:58:41.457Z,7.2
2022-11-13T00:59:41.429Z,7.3
2022-11-13T01:00:41.545Z,7.2
2022-11-13T01:01:41.614Z,7.1
2022-11-13T01:02:41.597Z,7
2022-11-13T01:03:41.552Z,7
2022-11-13T01:04:41.475Z,7
2022-11-13T01:05:41.435Z,7
2022-11-13T01:06:41.569Z,7
2022-11-13T01:07:41.449Z,6.9
2022-11-13T01:08:41.435Z,7
2022-11-13T01:09:41.437Z,6.9
2022-11-13T01:10:41.432Z,6.9
2022-11-13T01:11:41.486Z,6.9
2022-11-13T01:12:41.466Z,6.9
2022-11-13T01:13:41.438Z,6.9
2022-11-13T01:14:41.444Z,6.9
2022-11-13T01:15:41.434Z,6.9
2022-11-13T01:16:41.425Z,6.9
2022-11-13T01:17:41.476Z,6.9
2022-11-13T01:18:41.420Z,6.9
2022-11-13T01:19:41.483Z,7
2022-11-13T01:20:41.482Z,6.9
2022-11-13T01:21:41.428Z,6.9
2022-11-13T01:22:41.438Z,6.9
2022-11-13T01:23:41.431Z,6.9
2022-11-13T01:24:41.434Z,6.9
2022-11-13T01:25:41.426Z,6.8
2022-11-13T01:26:41.432Z,6.9
2022-11-13T01:27:41.605Z,6.9
2022-11-13T01:28:41.478Z,7
2022-11-13T01:29:41.439Z,7
2022-11-13T01:30:41.437Z,7
2022-11-13T01:31:41.434Z,6.9
2022-11-13T01:32:41.455Z,7
2022-11-13T01:33:41.434Z,6.9
2022-11-13T01:34:41.426Z,6.9
2022-11-13T01:35:41.527Z,6.9
2022-11-13T01:36:41.475Z,6.9
2022-11-13T01:37:41.450Z,6.9
2022-11-13T01:38:41.428Z,6.9
2022-11-13T01:39:41.449Z,6.8
2022-11-13T01:40:41.437Z,6.8
2022-11-13T01:41:41.450Z,6.8
2022-11-13T01:42:41.434Z,6.8
2022-11-13T01:43:41.502Z,6.8
2022-11-13T01:44:41.447Z,6.8
2022-11-13T01:45:41.435Z,6.9
2022-11-13T01:46:41.439Z,6.9
2022-11-13T01:47:41.506Z,6.9
2022-11-13T01:48:41.444Z,6.9
2022-11-13T01:49:41.438Z,6.8
2022-11-13T01:50:41.479Z,6.9
2022-11-13T01:51:41.468Z,6.9
2022-11-13T01:52:41.446Z,6.9
2022-11-13T01:53:41.435Z,6.9
2022-11-13T01:54:41.445Z,6.8
2022-11-13T01:55:41.436Z,6.9
2022-11-13T01:56:41.439Z,6.9
2022-11-13T01:57:41.438Z,6.9
2022-11-13T01:58:41.606Z,6.9
2022-11-13T01:59:41.480Z,6.9
2022-11-13T02:00:41.432Z,6.8
2022-11-13T02:01:41.554Z,6.8
2022-11-13T02:02:41.427Z,6.8
2022-11-13T02:03:41.441Z,6.8
2022-11-13T02:04:41.431Z,6.8
2022-11-13T02:05:41.450Z,6.8
2022-11-13T02:06:41.557Z,6.8
2022-11-13T02:07:41.472Z,6.8
2022-11-13T02:08:41.442Z,6.8
2022-11-13T02:09:41.546Z,6.8
2022-11-13T02:10:41.446Z,6.8
2022-11-13T02:11:41.427Z,6.8
2022-11-13T02:12:41.472Z,6.8
2022-11-13T02:13:41.426Z,6.8
2022-11-13T02:14:41.480Z,6.8
2022-11-13T02:15:41.463Z,6.8
2022-11-13T02:16:41.441Z,6.6
2022-11-13T02:17:41.426Z,6.6
2022-11-13T02:18:41.448Z,6.7
2022-11-13T02:19:41.430Z,6.6
2022-11-13T02:20:41.447Z,6.6
2022-11-13T02:21:41.447Z,6.7
2022-11-13T02:22:41.466Z,6.7
2022-11-13T02:23:41.532Z,6.8
2022-11-13T02:24:45.006Z,6.8
2022-11-13T02:25:41.436Z,6.8
2022-11-13T02:26:41.441Z,6.7
2022-11-13T02:27:41.437Z,6.7
2022-11-13T02:28:41.449Z,6.7
2022-11-13T02:29:41.577Z,6.7
2022-11-13T02:30:41.484Z,6.7
2022-11-13T02:31:41.620Z,6.6
2022-11-13T02:32:41.728Z,6.5
2022-11-13T02:33:41.756Z,6.5
2022-11-13T02:34:41.867Z,6.7
2022-11-13T02:35:41.452Z,6.7
2022-11-13T02:36:41.433Z,6.6
2022-11-13T02:37:41.426Z,6.7
2022-11-13T02:38:41.481Z,6.6
2022-11-13T02:39:41.434Z,6.6
2022-11-13T02:40:41.436Z,6.6
2022-11-13T02:41:41.434Z,6.6
2022-11-13T02:42:41.460Z,6.5
2022-11-13T02:43:41.436Z,6.5
2022-11-13T02:44:41.431Z,6.5
2022-11-13T02:45:41.470Z,6.4
2022-11-13T02:46:41.480Z,6.5
2022-11-13T02:47:41.441Z,6.5
2022-11-13T02:48:41.441Z,6.5
2022-11-13T02:49:41.434Z,6.5
2022-11-13T02:50:41.430Z,6.4
2022-11-13T02:51:41.450Z,6.4
2022-11-13T02:52:41.479Z,6.5
2022-11-13T02:53:41.488Z,6.4
2022-11-13T02:54:41.500Z,6.4
2022-11-13T02:55:41.431Z,6.4
2022-11-13T02:56:41.451Z,6.4
2022-11-13T02:57:41.432Z,6.5
2022-11-13T02:58:41.452Z,6.5
2022-11-13T02:59:41.439Z,6.5
2022-11-13T03:00:41.563Z,6.4
2022-11-13T03:01:41.667Z,6.5
2022-11-13T03:02:41.641Z,6.4
2022-11-13T03:03:56.936Z,6.4
2022-11-13T03:05:10.309Z,6.4
2022-11-13T03:05:41.505Z,6.5
2022-11-13T03:06:41.521Z,6.4
2022-11-13T03:07:41.495Z,6.5
2022-11-13T03:08:41.439Z,6.5
2022-11-13T03:09:41.482Z,6.4
2022-11-13T03:10:41.474Z,6.3
2022-11-13T03:11:41.440Z,6.3
2022-11-13T03:12:41.451Z,6.3
2022-11-13T03:13:41.447Z,6.2
2022-11-13T03:14:41.432Z,6.3
2022-11-13T03:15:41.460Z,6.3
2022-11-13T03:16:41.435Z,6.3
2022-11-13T03:17:41.534Z,6.4
2022-11-13T03:18:41.492Z,6.4
2022-11-13T03:19:41.440Z,6.4
2022-11-13T03:20:41.451Z,6.3
2022-11-13T03:21:41.435Z,6.4
2022-11-13T03:22:41.433Z,6.4
2022-11-13T03:23:41.439Z,6.4
2022-11-13T03:24:41.449Z,6.4
2022-11-13T03:25:41.499Z,6.4
2022-11-13T03:26:41.440Z,6.4
2022-11-13T03:27:41.438Z,6.4
2022-11-13T03:28:41.442Z,6.4
2022-11-13T03:29:41.436Z,6.4
2022-11-13T03:30:41.433Z,6.3
2022-11-13T03:31:41.561Z,6.3
2022-11-13T03:32:41.461Z,6.4
2022-11-13T03:33:41.480Z,6.3
2022-11-13T03:34:41.452Z,6.3
2022-11-13T03:35:46.513Z,6.3
2022-11-13T03:36:41.460Z,6.3
2022-11-13T03:37:41.435Z,6.3
2022-11-13T03:38:41.437Z,6.3
2022-11-13T03:39:41.437Z,6.3
2022-11-13T03:40:41.431Z,6.3
2022-11-13T03:41:41.501Z,6.2
2022-11-13T03:42:41.448Z,6.2
2022-11-13T03:43:41.442Z,6.1
2022-11-13T03:44:41.441Z,6.1
2022-11-13T03:45:41.466Z,6.1
2022-11-13T03:46:41.459Z,6.1
2022-11-13T03:47:41.451Z,6.1
2022-11-13T03:48:41.505Z,6.1
2022-11-13T03:49:41.485Z,6
2022-11-13T03:50:45.358Z,6
2022-11-13T03:51:41.435Z,6
2022-11-13T03:52:41.449Z,6
2022-11-13T03:53:41.436Z,6.1
2022-11-13T03:54:41.423Z,6.1
2022-11-13T03:55:41.447Z,6.1
2022-11-13T03:56:41.482Z,6.1
2022-11-13T03:57:41.471Z,5.9
2022-11-13T03:58:44.710Z,6
2022-11-13T03:59:41.435Z,6
2022-11-13T04:00:41.437Z,6
2022-11-13T04:01:41.462Z,6
2022-11-13T04:02:41.572Z,5.9
2022-11-13T04:03:41.444Z,5.8
2022-11-13T04:04:41.487Z,5.9
2022-11-13T04:05:41.470Z,5.8
2022-11-13T04:06:41.494Z,5.9
2022-11-13T04:07:41.506Z,5.9
2022-11-13T04:08:41.437Z,5.9
2022-11-13T04:09:41.432Z,6
2022-11-13T04:10:41.472Z,5.9
2022-11-13T04:11:41.444Z,5.9
2022-11-13T04:12:41.492Z,6
2022-11-13T04:13:41.467Z,5.9
2022-11-13T04:14:41.471Z,5.9
2022-11-13T04:15:41.451Z,6
2022-11-13T04:16:41.436Z,6
2022-11-13T04:17:41.482Z,6
2022-11-13T04:18:41.452Z,5.9
2022-11-13T04:19:41.442Z,5.9
2022-11-13T04:20:41.487Z,5.9
2022-11-13T04:21:41.470Z,5.9
2022-11-13T04:22:41.439Z,5.8
2022-11-13T04:23:41.439Z,5.9
2022-11-13T04:24:41.443Z,5.8
2022-11-13T04:25:41.642Z,5.8
2022-11-13T04:26:41.438Z,5.8
2022-11-13T04:27:41.680Z,5.8
2022-11-13T04:28:41.482Z,5.7
2022-11-13T04:29:41.435Z,5.7
2022-11-13T04:30:41.445Z,5.7
2022-11-13T04:31:41.437Z,5.7
2022-11-13T04:32:41.530Z,5.7
2022-11-13T04:33:41.549Z,5.7
2022-11-13T04:34:41.424Z,5.8
2022-11-13T04:35:41.495Z,5.7
2022-11-13T04:36:41.780Z,5.7
2022-11-13T04:37:41.455Z,5.6
2022-11-13T04:38:41.436Z,5.6
2022-11-13T04:39:41.442Z,5.6
2022-11-13T04:40:41.432Z,5.6
2022-11-13T04:41:41.445Z,5.6
2022-11-13T04:42:41.445Z,5.6
2022-11-13T04:43:41.513Z,5.6
2022-11-13T04:44:41.487Z,5.7
2022-11-13T04:45:41.447Z,5.7
2022-11-13T04:46:41.434Z,5.6
2022-11-13T04:47:41.461Z,5.6
2022-11-13T04:48:41.446Z,5.6
2022-11-13T04:49:41.445Z,5.6
2022-11-13T04:50:41.456Z,5.6
2022-11-13T04:51:41.501Z,5.6
2022-11-13T04:52:41.481Z,5.5
2022-11-13T04:53:41.425Z,5.6
2022-11-13T04:54:41.502Z,5.6
2022-11-13T04:55:41.440Z,5.5
2022-11-13T04:56:41.432Z,5.5
2022-11-13T04:57:41.477Z,5.5
2022-11-13T04:58:41.444Z,5.5
2022-11-13T04:59:41.510Z,5.6
2022-11-13T05:00:41.475Z,5.5
2022-11-13T05:01:41.582Z,5.5
2022-11-13T05:02:41.577Z,5.6
2022-11-13T05:03:41.616Z,5.6
2022-11-13T05:04:41.660Z,5.6
2022-11-13T05:05:41.571Z,5.6
2022-11-13T05:06:41.796Z,5.6
2022-11-13T05:07:41.710Z,5.5
2022-11-13T05:08:41.530Z,5.5
2022-11-13T05:09:41.647Z,5.5
2022-11-13T05:10:41.619Z,5.5
2022-11-13T05:11:41.431Z,5.5
2022-11-13T05:12:41.428Z,5.4
2022-11-13T05:13:41.500Z,5.5
2022-11-13T05:14:41.430Z,5.5
2022-11-13T05:15:41.484Z,5.5
2022-11-13T05:16:41.478Z,5.5
2022-11-13T05:17:41.463Z,5.5
2022-11-13T05:18:41.429Z,5.4
2022-11-13T05:19:41.430Z,5.5
2022-11-13T05:20:41.439Z,5.5
2022-11-13T05:21:41.446Z,5.5
2022-11-13T05:22:41.454Z,5.5
2022-11-13T05:23:41.476Z,5.4
2022-11-13T05:24:41.430Z,5.4
2022-11-13T05:25:41.447Z,5.4
2022-11-13T05:26:41.436Z,5.4
2022-11-13T05:27:41.486Z,5.5
2022-11-13T05:28:41.433Z,5.4
2022-11-13T05:29:41.438Z,5.4
2022-11-13T05:30:41.437Z,5.4
2022-11-13T05:31:41.484Z,5.4
2022-11-13T05:32:41.455Z,5.4
2022-11-13T05:33:41.442Z,5.3
2022-11-13T05:34:41.453Z,5.4
2022-11-13T05:35:41.568Z,5.3
2022-11-13T05:36:41.429Z,5.3
2022-11-13T05:37:41.425Z,5.3
2022-11-13T05:38:41.519Z,5.3
2022-11-13T05:39:41.478Z,5.3
2022-11-13T05:40:41.438Z,5.2
2022-11-13T05:41:41.439Z,5.2
2022-11-13T05:42:41.449Z,5.2
2022-11-13T05:43:41.426Z,5.2
2022-11-13T05:44:41.436Z,5.3
2022-11-13T05:45:41.440Z,5.2
2022-11-13T05:46:41.480Z,5.2
2022-11-13T05:47:41.516Z,5.2
2022-11-13T05:48:41.443Z,5.2
2022-11-13T05:49:41.491Z,5.3
2022-11-13T05:50:41.467Z,5.2
2022-11-13T05:51:41.432Z,5.2
2022-11-13T05:52:41.441Z,5.3
2022-11-13T05:53:41.432Z,5.3
2022-11-13T05:54:41.492Z,5.3
2022-11-13T05:55:41.476Z,5.2
2022-11-13T05:56:41.460Z,5.3
2022-11-13T05:57:41.464Z,5.3
2022-11-13T05:58:41.448Z,5.2
2022-11-13T05:59:41.439Z,5.1
2022-11-13T06:00:41.476Z,5.1
2022-11-13T06:01:41.487Z,5.1
2022-11-13T06:02:41.516Z,5.2
2022-11-13T06:03:41.469Z,5.1
2022-11-13T06:04:41.437Z,5.1
2022-11-13T06:05:41.446Z,5.2
2022-11-13T06:06:41.639Z,5.2
2022-11-13T06:07:41.430Z,5.3
2022-11-13T06:08:41.467Z,5.3
2022-11-13T06:09:41.450Z,5.3
2022-11-13T06:10:41.506Z,5.3
2022-11-13T06:11:41.474Z,5.3
2022-11-13T06:12:41.439Z,5.4
2022-11-13T06:13:41.424Z,5.4
2022-11-13T06:14:41.435Z,5.4
2022-11-13T06:15:41.433Z,5.4
2022-11-13T06:16:41.453Z,5.4
2022-11-13T06:17:41.465Z,5.3
2022-11-13T06:18:41.492Z,5.3
2022-11-13T06:19:41.592Z,5.3
2022-11-13T06:20:41.612Z,5.3
2022-11-13T06:21:41.448Z,5.4
2022-11-13T06:22:41.454Z,5.3
2022-11-13T06:23:41.424Z,5.3
2022-11-13T06:24:41.434Z,5.3
2022-11-13T06:25:41.428Z,5.4
2022-11-13T06:26:41.483Z,5.3
2022-11-13T06:27:41.822Z,5.2
2022-11-13T06:28:41.730Z,5.2
2022-11-13T06:29:41.440Z,5.2
2022-11-13T06:30:41.431Z,5.2
2022-11-13T06:31:41.425Z,5.2
2022-11-13T06:32:41.471Z,5.3
2022-11-13T06:33:41.482Z,5.3
2022-11-13T06:34:41.495Z,5.4
2022-11-13T06:35:41.441Z,5.4
2022-11-13T06:36:41.430Z,5.4
2022-11-13T06:37:41.555Z,5.5
2022-11-13T06:38:41.463Z,5.4
2022-11-13T06:39:41.550Z,5.4
2022-11-13T06:40:41.441Z,5.4
2022-11-13T06:41:41.472Z,5.4
2022-11-13T06:42:41.544Z,5.4
2022-11-13T06:43:41.424Z,5.4
2022-11-13T06:44:41.491Z,5.5
2022-11-13T06:45:41.442Z,5.4
2022-11-13T06:46:41.438Z,5.4
2022-11-13T06:47:41.448Z,5.4
2022-11-13T06:48:41.438Z,5.4
2022-11-13T06:49:41.482Z,5.3
2022-11-13T06:50:45.675Z,5.3
2022-11-13T06:51:41.447Z,5.4
2022-11-13T06:52:41.565Z,5.4
2022-11-13T06:53:41.443Z,5.3
2022-11-13T06:54:41.435Z,5.4
2022-11-13T06:55:41.485Z,5.4
2022-11-13T06:56:41.441Z,5.6
2022-11-13T06:57:41.520Z,5.6
2022-11-13T06:58:41.477Z,5.7
2022-11-13T06:59:41.433Z,5.8
2022-11-13T07:00:41.765Z,5.8
2022-11-13T07:01:41.592Z,5.9
2022-11-13T07:02:41.654Z,5.9
2022-11-13T07:03:41.536Z,6
2022-11-13T07:04:41.685Z,6.1
2022-11-13T07:05:41.649Z,6.1
2022-11-13T07:06:41.693Z,6.2
2022-11-13T07:07:41.554Z,6.3
2022-11-13T07:08:41.890Z,6.4
2022-11-13T07:09:41.450Z,6.4
2022-11-13T07:10:41.435Z,6.2
2022-11-13T07:11:41.459Z,6.1
2022-11-13T07:12:41.441Z,6.1
2022-11-13T07:13:41.482Z,5.9
2022-11-13T07:14:41.474Z,5.8
2022-11-13T07:15:41.438Z,5.6
2022-11-13T07:17:07.410Z,5.6
2022-11-13T07:17:41.467Z,5.6
2022-11-13T07:18:41.435Z,5.6
2022-11-13T07:19:41.437Z,5.5
2022-11-13T07:20:41.439Z,5.6
2022-11-13T07:21:41.491Z,5.5
2022-11-13T07:22:41.457Z,5.6
2022-11-13T07:23:41.470Z,5.7
2022-11-13T07:24:41.424Z,5.7
2022-11-13T07:25:41.435Z,5.7
2022-11-13T07:26:41.443Z,5.8
2022-11-13T07:27:41.434Z,5.8
2022-11-13T07:28:41.445Z,5.9
2022-11-13T07:29:41.477Z,6
2022-11-13T07:30:41.440Z,6.1
2022-11-13T07:31:41.434Z,6.2
2022-11-13T07:32:41.483Z,6.2
2022-11-13T07:33:41.449Z,6.1
2022-11-13T07:34:41.429Z,6.2
2022-11-13T07:35:41.438Z,6.4
2022-11-13T07:36:41.480Z,6.5
2022-11-13T07:37:41.481Z,6.5
2022-11-13T07:38:41.428Z,6.5
2022-11-13T07:39:41.550Z,6.4
2022-11-13T07:40:41.444Z,6.5
2022-11-13T07:41:41.431Z,6.6
2022-11-13T07:42:41.529Z,6.6
2022-11-13T07:43:41.465Z,6.6
2022-11-13T07:44:54.066Z,6.7
2022-11-13T07:45:41.485Z,6.8
2022-11-13T07:46:41.457Z,6.8
2022-11-13T07:47:41.512Z,7
2022-11-13T07:48:41.453Z,7
2022-11-13T07:49:41.462Z,6.9
2022-11-13T07:50:41.433Z,7
2022-11-13T07:51:41.440Z,7.1
2022-11-13T07:52:41.500Z,7
2022-11-13T07:53:41.466Z,7
2022-11-13T07:54:41.443Z,7.1
2022-11-13T07:55:41.435Z,7.1
2022-11-13T07:56:41.437Z,7.2
2022-11-13T07:57:41.451Z,7.1
2022-11-13T07:58:41.529Z,7.2
2022-11-13T07:59:41.435Z,7.1
2022-11-13T08:00:41.524Z,7.1
2022-11-13T08:01:41.489Z,7.2
2022-11-13T08:02:41.466Z,7.2
2022-11-13T08:03:41.452Z,7.1
2022-11-13T08:04:41.469Z,7.1
2022-11-13T08:05:41.450Z,6.9
2022-11-13T08:06:41.514Z,7
2022-11-13T08:07:41.440Z,7.2
2022-11-13T08:08:41.474Z,7.2
2022-11-13T08:09:41.424Z,7.3
2022-11-13T08:10:41.556Z,7.3
2022-11-13T08:11:41.431Z,7.1
2022-11-13T08:12:41.436Z,7
2022-11-13T08:13:41.433Z,7
2022-11-13T08:14:41.460Z,6.9
2022-11-13T08:15:41.431Z,7
2022-11-13T08:16:41.472Z,7
2022-11-13T08:17:41.458Z,6.8
2022-11-13T08:18:41.444Z,6.7
2022-11-13T08:19:41.542Z,6.9
2022-11-13T08:20:41.435Z,6.6
2022-11-13T08:21:41.431Z,6.8
2022-11-13T08:22:41.480Z,7.1
2022-11-13T08:23:41.457Z,7.4
2022-11-13T08:24:41.611Z,7.6
2022-11-13T08:25:41.453Z,7.4
2022-11-13T08:26:41.489Z,7.6
2022-11-13T08:27:41.441Z,7.5
2022-11-13T08:28:41.442Z,7.3
2022-11-13T08:29:41.432Z,7.2
2022-11-13T08:30:41.447Z,7.4
2022-11-13T08:31:41.487Z,7.3
2022-11-13T08:32:41.507Z,7.2
2022-11-13T08:33:41.426Z,7.1
2022-11-13T08:34:41.451Z,7
2022-11-13T08:35:41.439Z,7.2
2022-11-13T08:36:41.455Z,7.1
2022-11-13T08:37:41.470Z,7.1
2022-11-13T08:38:41.437Z,7.2
2022-11-13T08:39:41.486Z,7.3
2022-11-13T08:40:41.503Z,7.2
2022-11-13T08:41:41.584Z,7.4
2022-11-13T08:42:41.436Z,7.1
2022-11-13T08:43:41.429Z,7.4
2022-11-13T08:44:41.447Z,7.4
2022-11-13T08:45:41.442Z,7.1
2022-11-13T08:46:41.437Z,7
2022-11-13T08:47:41.493Z,7.2
2022-11-13T08:48:41.464Z,7.3
2022-11-13T08:49:41.429Z,7.2
2022-11-13T08:50:41.445Z,7.2
2022-11-13T08:51:41.479Z,7.3
2022-11-13T08:52:41.435Z,7.4
2022-11-13T08:53:41.438Z,7
2022-11-13T08:54:41.473Z,7.2
2022-11-13T08:55:41.485Z,7.5
2022-11-13T08:56:41.457Z,7.4
2022-11-13T08:57:41.451Z,7.5
2022-11-13T08:58:41.437Z,7.3
2022-11-13T08:59:41.468Z,7.2
2022-11-13T09:00:41.446Z,7
2022-11-13T09:01:41.438Z,6.9
2022-11-13T09:02:41.530Z,6.8
2022-11-13T09:03:41.570Z,7.3
2022-11-13T09:04:41.450Z,7.3
2022-11-13T09:05:41.494Z,7.2
2022-11-13T09:06:41.494Z,6.7
2022-11-13T09:07:41.438Z,7.3
2022-11-13T09:08:41.436Z,7.4
2022-11-13T09:09:41.442Z,7.2
2022-11-13T09:10:41.499Z,7.3
2022-11-13T09:11:41.498Z,7.3
2022-11-13T09:12:41.564Z,7.9
2022-11-13T09:13:45.115Z,8
2022-11-13T09:14:41.447Z,7.7
2022-11-13T09:15:41.454Z,7.7
2022-11-13T09:16:41.453Z,7.2
2022-11-13T09:17:41.472Z,7.5
2022-11-13T09:18:41.483Z,7.8
2022-11-13T09:19:41.474Z,8
2022-11-13T09:20:41.450Z,7.9
2022-11-13T09:21:41.442Z,7.7
2022-11-13T09:22:41.458Z,8.2
2022-11-13T09:23:41.441Z,8.7
2022-11-13T09:24:41.465Z,8.7
2022-11-13T09:25:41.449Z,8.7
2022-11-13T09:26:41.493Z,7.9
2022-11-13T09:27:41.497Z,8.1
2022-11-13T09:28:41.454Z,8.1
2022-11-13T09:29:41.441Z,8.4
2022-11-13T09:30:41.461Z,8.3
2022-11-13T09:31:41.544Z,8.1
2022-11-13T09:32:41.468Z,7.9
2022-11-13T09:33:41.439Z,8.3
2022-11-13T09:34:41.513Z,8.5
2022-11-13T09:35:41.446Z,8.7
2022-11-13T09:36:41.450Z,8.6
2022-11-13T09:37:41.449Z,8.5
2022-11-13T09:38:41.448Z,8.5
2022-11-13T09:39:41.438Z,8.9
2022-11-13T09:40:41.439Z,8.2
2022-11-13T09:41:41.432Z,7.8
2022-11-13T09:42:41.485Z,7.6
2022-11-13T09:43:41.553Z,7.4
2022-11-13T09:44:41.440Z,7.5
2022-11-13T09:45:41.451Z,7.4
2022-11-13T09:46:41.439Z,7
2022-11-13T09:47:41.461Z,7.7
2022-11-13T09:48:41.442Z,8
2022-11-13T09:49:41.492Z,7
2022-11-13T09:50:41.489Z,8.3
2022-11-13T09:51:41.443Z,6.9
2022-11-13T09:52:41.446Z,7.4
2022-11-13T09:53:41.434Z,7.5
2022-11-13T09:54:41.446Z,7
2022-11-13T09:55:41.443Z,6.8
2022-11-13T09:56:41.450Z,5.9
2022-11-13T09:57:41.484Z,6
2022-11-13T09:58:41.483Z,6.7
2022-11-13T09:59:41.463Z,6.3
2022-11-13T10:00:41.577Z,6.1
2022-11-13T10:01:41.452Z,6.5
2022-11-13T10:02:41.467Z,6.6
2022-11-13T10:04:41.457Z,6
2022-11-13T10:05:41.512Z,5.4
2022-11-13T10:06:41.527Z,6.2
2022-11-13T10:07:41.443Z,5.9
2022-11-13T10:08:41.466Z,5.9
2022-11-13T10:09:41.464Z,5.4
2022-11-13T10:10:41.441Z,5
2022-11-13T10:11:41.438Z,5.8
2022-11-13T10:12:41.494Z,5.1
2022-11-13T10:13:41.487Z,5.5
2022-11-13T10:14:41.590Z,5
2022-11-13T10:15:41.431Z,5.2
2022-11-13T10:16:41.454Z,5
2022-11-13T10:17:41.459Z,5
2022-11-13T10:18:41.466Z,5
2022-11-13T10:19:41.428Z,5
2022-11-13T10:20:41.450Z,5.7
2022-11-13T10:21:41.487Z,5.5
2022-11-13T10:22:41.485Z,4.9
2022-11-13T10:23:41.453Z,5.1
2022-11-13T10:24:41.459Z,6
2022-11-13T10:25:41.460Z,6.8
2022-11-13T10:26:41.462Z,5.7
2022-11-13T10:27:41.564Z,5.7
2022-11-13T10:28:50.569Z,5.7
2022-11-13T10:29:47.643Z,7.3
2022-11-13T10:30:41.525Z,7.1
2022-11-13T10:31:41.456Z,6.3
2022-11-13T10:32:41.454Z,6.7
2022-11-13T10:33:41.445Z,6.2
2022-11-13T10:34:41.459Z,6
2022-11-13T10:35:41.449Z,6.3
2022-11-13T10:36:41.448Z,5.7
2022-11-13T10:37:41.493Z,5.7
2022-11-13T10:38:41.452Z,6.3
2022-11-13T10:39:41.444Z,6.7
2022-11-13T10:40:41.442Z,6.1
2022-11-13T10:41:41.461Z,5.7
2022-11-13T10:42:41.451Z,7.1
2022-11-13T10:43:41.448Z,6.8
2022-11-13T10:44:41.470Z,6.5
2022-11-13T10:45:41.617Z,6.1
2022-11-13T10:46:41.448Z,6.7
2022-11-13T10:48:03.229Z,6.3
2022-11-13T10:48:41.455Z,5.8
2022-11-13T10:49:41.449Z,6
2022-11-13T10:50:41.455Z,6
2022-11-13T10:51:41.459Z,6.6
2022-11-13T10:52:41.511Z,5.8
2022-11-13T10:53:41.516Z,6.4
2022-11-13T10:54:41.459Z,6.5
2022-11-13T10:55:41.449Z,6.4
2022-11-13T10:56:41.458Z,6.7
2022-11-13T10:57:41.460Z,6.8
2022-11-13T10:58:41.454Z,6.3
2022-11-13T10:59:41.451Z,6.3
2022-11-13T11:00:41.644Z,5.7
2022-11-13T11:01:41.579Z,6
2022-11-13T11:02:41.478Z,6.1
2022-11-13T11:03:41.446Z,5.7
2022-11-13T11:04:41.462Z,5.6
2022-11-13T11:05:41.465Z,5.3
2022-11-13T11:07:17.808Z,5.4
2022-11-13T11:07:41.562Z,6.3
2022-11-13T11:08:41.508Z,5.7
2022-11-13T11:09:41.484Z,5.8
2022-11-13T11:10:41.478Z,7
2022-11-13T11:11:41.451Z,6.5
2022-11-13T11:12:41.442Z,6.6
2022-11-13T11:13:41.450Z,6
2022-11-13T11:14:41.759Z,6.2
2022-11-13T11:15:41.458Z,6.4
2022-11-13T11:16:41.631Z,5.8
2022-11-13T11:17:41.507Z,5.4
2022-11-13T11:18:41.448Z,5.6
2022-11-13T11:19:41.459Z,6.4
2022-11-13T11:20:41.454Z,5.9
2022-11-13T11:21:41.454Z,6.2
2022-11-13T11:22:41.444Z,5.8
2022-11-13T11:23:41.448Z,6.2
2022-11-13T11:24:41.495Z,6.5
2022-11-13T11:25:41.505Z,6.2
2022-11-13T11:26:41.449Z,5.9
2022-11-13T11:27:41.463Z,6.5
2022-11-13T11:28:41.464Z,5.9
2022-11-13T11:29:41.445Z,5.6
2022-11-13T11:30:41.447Z,6.9
2022-11-13T11:31:41.451Z,7.1
2022-11-13T11:32:41.527Z,5.9
2022-11-13T11:33:41.456Z,6.8
2022-11-13T11:34:41.448Z,8
2022-11-13T11:35:41.482Z,6.7
2022-11-13T11:36:41.504Z,6.2
2022-11-13T11:37:41.454Z,6.2
2022-11-13T11:38:41.469Z,6
2022-11-13T11:39:41.471Z,6.6
2022-11-13T11:40:41.501Z,6.4
2022-11-13T11:41:41.465Z,7.4
2022-11-13T11:42:41.455Z,6.8
2022-11-13T11:43:41.455Z,7.6
2022-11-13T11:44:41.456Z,6.2
2022-11-13T11:45:41.455Z,7.1
2022-11-13T11:46:46.447Z,6.1
2022-11-13T11:47:41.730Z,7
2022-11-13T11:48:41.500Z,6.1
2022-11-13T11:49:41.456Z,6.9
2022-11-13T11:50:41.454Z,7.1
2022-11-13T11:51:41.463Z,7.4
2022-11-13T11:52:41.461Z,7
2022-11-13T11:53:41.462Z,7.4
2022-11-13T11:54:41.454Z,7.1
2022-11-13T11:55:41.509Z,7.9
2022-11-13T11:56:41.494Z,6.4
2022-11-13T11:57:41.463Z,7.2
2022-11-13T11:58:41.484Z,6.4
2022-11-13T11:59:41.455Z,6.7
2022-11-13T12:00:41.475Z,6.1
2022-11-13T12:01:41.456Z,7.3
2022-11-13T12:02:41.459Z,7.5
2022-11-13T12:03:41.501Z,8.1
2022-11-13T12:04:41.512Z,7.8
2022-11-13T12:05:41.643Z,7
2022-11-13T12:06:41.553Z,7.1
2022-11-13T12:07:41.496Z,6.9
2022-11-13T12:08:41.463Z,7.3
2022-11-13T12:09:41.522Z,6.8
2022-11-13T12:10:41.466Z,7.4
2022-11-13T12:11:41.527Z,6.4
2022-11-13T12:12:41.516Z,6.5
2022-11-13T12:13:41.474Z,7.4
2022-11-13T12:14:41.452Z,8.1
2022-11-13T12:15:41.462Z,7.3
2022-11-13T12:16:41.490Z,6.9
2022-11-13T12:17:41.487Z,7.2
2022-11-13T12:18:41.598Z,6.9
2022-11-13T12:19:41.527Z,7
2022-11-13T12:20:41.498Z,6.9
2022-11-13T12:21:41.471Z,8
2022-11-13T12:22:41.462Z,6.9
2022-11-13T12:23:41.459Z,7.1
2022-11-13T12:24:41.512Z,8.2
2022-11-13T12:25:41.471Z,7.3
2022-11-13T12:26:41.462Z,7.8
2022-11-13T12:27:41.512Z,7.8
2022-11-13T12:28:41.474Z,7
2022-11-13T12:29:41.476Z,8.4
2022-11-13T12:30:41.478Z,7
2022-11-13T12:31:41.516Z,7.9
2022-11-13T12:32:41.555Z,9.1
2022-11-13T12:33:41.464Z,7.1
2022-11-13T12:34:41.485Z,7.7
2022-11-13T12:35:41.551Z,8.5
2022-11-13T12:36:41.822Z,6.4
2022-11-13T12:37:41.467Z,6.6
2022-11-13T12:38:41.473Z,7.4
2022-11-13T12:39:41.473Z,6.4
2022-11-13T12:40:44.708Z,6.1
2022-11-13T12:41:41.513Z,7.3
2022-11-13T12:42:41.523Z,6.5
2022-11-13T12:43:41.512Z,6.3
2022-11-13T12:44:41.463Z,6.7
2022-11-13T12:45:41.472Z,7.2
2022-11-13T12:46:41.479Z,7.4
2022-11-13T12:47:41.508Z,7.6
2022-11-13T12:48:41.465Z,7.5
2022-11-13T12:49:41.589Z,8.3
2022-11-13T12:50:41.528Z,7.1
2022-11-13T12:51:41.512Z,6.7
2022-11-13T12:52:41.473Z,6.7
2022-11-13T12:53:41.518Z,6.6
2022-11-13T12:54:41.484Z,6.4
2022-11-13T12:55:41.479Z,7.1
2022-11-13T12:56:41.499Z,6.6
2022-11-13T12:57:41.481Z,6.7
2022-11-13T12:58:41.528Z,7.7
2022-11-13T12:59:41.529Z,7.6
2022-11-13T13:00:41.483Z,6.6
2022-11-13T13:01:41.506Z,7.6
2022-11-13T13:02:41.502Z,6.5
2022-11-13T13:03:41.492Z,6.9
2022-11-13T13:04:41.493Z,6.3
2022-11-13T13:05:41.648Z,6.3
2022-11-13T13:06:41.584Z,6
2022-11-13T13:07:41.516Z,6.2
2022-11-13T13:08:41.532Z,6.5
2022-11-13T13:09:41.613Z,6
2022-11-13T13:10:41.490Z,6
2022-11-13T13:11:41.773Z,5.8
2022-11-13T13:12:41.786Z,5.8
2022-11-13T13:13:41.751Z,6.2
2022-11-13T13:14:41.538Z,5.5
2022-11-13T13:15:41.488Z,5.6
2022-11-13T13:16:41.474Z,6.6
2022-11-13T13:17:41.515Z,7
2022-11-13T13:18:41.510Z,6.5
2022-11-13T13:19:41.479Z,6.9
2022-11-13T13:20:41.606Z,7.6
2022-11-13T13:21:41.547Z,7.6
2022-11-13T13:22:41.518Z,6.9
2022-11-13T13:23:41.502Z,7.5
2022-11-13T13:24:41.490Z,8
2022-11-13T13:25:41.488Z,8.2
2022-11-13T13:26:41.498Z,8.6
2022-11-13T13:27:41.493Z,8.2
2022-11-13T13:28:41.484Z,7.4
2022-11-13T13:29:41.521Z,8.4
2022-11-13T13:30:41.523Z,7
2022-11-13T13:31:41.488Z,7.9
2022-11-13T13:32:41.506Z,6.6
2022-11-13T13:33:41.499Z,6.5
2022-11-13T13:34:41.482Z,6.8
2022-11-13T13:35:41.482Z,8
2022-11-13T13:36:41.497Z,7
2022-11-13T13:37:41.522Z,7.8
2022-11-13T13:38:41.577Z,6.9
2022-11-13T13:39:41.523Z,7
2022-11-13T13:40:41.492Z,7.4
2022-11-13T13:41:41.508Z,7.4
2022-11-13T13:42:41.501Z,6.7
2022-11-13T13:43:41.508Z,7.6
2022-11-13T13:44:41.519Z,8.4
2022-11-13T13:45:41.546Z,8.1
2022-11-13T13:46:41.502Z,7.6
2022-11-13T13:47:41.546Z,7.7
2022-11-13T13:48:41.511Z,6.9
2022-11-13T13:49:41.585Z,6.4
2022-11-13T13:50:41.523Z,6.5
2022-11-13T13:51:41.637Z,6.6
2022-11-13T13:52:41.516Z,6.4
2022-11-13T13:53:41.549Z,6.8